Aviation Digital Data Service (ADDS)

Output produced by METARs form (2327 UTC 31 August 2016)
found at http://aviationweather.gov/adds/metars/
 
KHKY 311737Z 3118/0118 17003KT P6SM SCT060 
     FM011500 31003KT P6SM FEW060 SCT120